createdAt,value
2022-09-13T00:03:23.526Z,7.30
2022-09-13T00:08:24.253Z,6.30
2022-09-13T00:13:24.999Z,5.20
2022-09-13T00:18:25.707Z,7.10
2022-09-13T00:23:26.538Z,7.30
2022-09-13T00:28:27.218Z,8.00
2022-09-13T00:33:27.951Z,6.30
2022-09-13T00:38:28.704Z,6.30
2022-09-13T00:43:29.480Z,5.70
2022-09-13T00:48:30.206Z,6.20
2022-09-13T00:53:30.945Z,6.40
2022-09-13T00:58:31.695Z,5.60
2022-09-13T01:03:32.409Z,5.80
2022-09-13T01:08:33.153Z,6.20
2022-09-13T01:13:33.888Z,5.20
2022-09-13T01:18:34.603Z,5.40
2022-09-13T01:23:35.346Z,5.30
2022-09-13T01:28:36.073Z,6.40
2022-09-13T01:33:36.794Z,7.20
2022-09-13T01:38:37.529Z,4.80
2022-09-13T01:43:38.268Z,6.00
2022-09-13T01:48:39.000Z,6.90
2022-09-13T01:53:39.721Z,5.50
2022-09-13T01:58:40.468Z,5.80
2022-09-13T02:03:41.192Z,6.30
2022-09-13T02:08:41.918Z,6.90
2022-09-13T02:13:42.764Z,6.40
2022-09-13T02:18:43.497Z,5.90
2022-09-13T02:23:44.218Z,6.10
2022-09-13T02:28:44.986Z,5.70
2022-09-13T02:33:45.742Z,5.30
2022-09-13T02:38:46.471Z,5.90
2022-09-13T02:43:47.185Z,6.20
2022-09-13T02:48:48.036Z,5.00
2022-09-13T02:53:48.847Z,5.80
2022-09-13T02:58:49.603Z,5.50
2022-09-13T03:03:50.408Z,6.30
2022-09-13T03:08:51.064Z,5.40
2022-09-13T03:13:51.870Z,7.90
2022-09-13T03:18:53.645Z,5.70
2022-09-13T03:23:53.359Z,6.30
2022-09-13T03:28:54.115Z,5.80
2022-09-13T03:33:54.868Z,6.60
2022-09-13T03:38:55.627Z,6.50
2022-09-13T03:44:03.462Z,6.50
2022-09-13T03:48:57.258Z,5.90
2022-09-13T03:53:58.196Z,5.80
2022-09-13T03:58:58.933Z,6.00
2022-09-13T04:03:59.702Z,7.70
2022-09-13T04:09:00.400Z,7.00
2022-09-13T04:14:01.096Z,7.30
2022-09-13T04:19:01.780Z,7.00
2022-09-13T04:24:02.501Z,6.10
2022-09-13T04:29:03.251Z,7.50
2022-09-13T04:34:03.917Z,6.10
2022-09-13T04:39:04.653Z,7.50
2022-09-13T04:44:05.279Z,7.30
2022-09-13T04:49:06.013Z,7.70
2022-09-13T04:54:06.762Z,8.70
2022-09-13T04:59:07.459Z,8.30
2022-09-13T05:04:08.268Z,8.20
2022-09-13T05:09:08.913Z,8.50
2022-09-13T05:14:09.583Z,8.20
2022-09-13T05:19:10.263Z,8.30
2022-09-13T05:24:10.931Z,7.60
2022-09-13T05:29:11.614Z,11.80
2022-09-13T05:34:12.328Z,9.40
2022-09-13T05:39:29.668Z,9.70
2022-09-13T05:44:14.609Z,9.70
2022-09-13T05:49:14.257Z,16.90
2022-09-13T05:54:14.939Z,24.00
2022-09-13T05:59:15.626Z,16.90
2022-09-13T06:04:16.309Z,16.20
2022-09-13T06:09:16.960Z,13.30
2022-09-13T06:14:17.682Z,13.30
2022-09-13T06:19:18.420Z,14.40
2022-09-13T06:24:19.081Z,13.10
2022-09-13T06:29:19.803Z,14.60
2022-09-13T06:34:20.419Z,14.50
2022-09-13T06:39:21.112Z,16.90
2022-09-13T06:44:21.804Z,13.30
2022-09-13T06:49:22.435Z,14.00
2022-09-13T06:54:23.219Z,12.30
2022-09-13T06:59:23.851Z,16.00
2022-09-13T07:04:24.585Z,12.70
2022-09-13T07:09:25.291Z,12.50
2022-09-13T07:14:25.910Z,17.90
2022-09-13T07:19:26.630Z,20.50
2022-09-13T07:24:27.318Z,17.20
2022-09-13T07:29:27.951Z,25.30
2022-09-13T07:34:28.645Z,15.40
2022-09-13T07:39:29.395Z,15.20
2022-09-13T07:44:30.089Z,13.10
2022-09-13T07:49:30.849Z,16.20
2022-09-13T07:54:31.466Z,13.80
2022-09-13T07:59:32.180Z,13.40
2022-09-13T08:04:36.281Z,16.10
2022-09-13T08:09:33.673Z,15.10
2022-09-13T08:14:34.394Z,15.40
2022-09-13T08:19:35.052Z,38.70
2022-09-13T08:24:35.755Z,19.60
2022-09-13T08:29:36.456Z,17.10
2022-09-13T08:34:37.216Z,24.40
2022-09-13T08:39:37.884Z,16.40
2022-09-13T08:44:38.535Z,14.30
2022-09-13T08:49:39.234Z,15.00
2022-09-13T08:54:39.929Z,26.00
2022-09-13T08:59:40.582Z,14.10
2022-09-13T09:04:41.257Z,15.10
2022-09-13T09:09:41.935Z,14.30
2022-09-13T09:14:42.598Z,15.10
2022-09-13T09:19:43.252Z,13.80
2022-09-13T09:24:44.075Z,16.60
2022-09-13T09:29:44.806Z,15.40
2022-09-13T09:34:45.426Z,17.40
2022-09-13T09:39:46.113Z,19.70
2022-09-13T09:44:47.250Z,15.00
2022-09-13T09:49:54.402Z,16.40
2022-09-13T09:54:48.042Z,12.30
2022-09-13T09:59:48.712Z,11.30
2022-09-13T10:04:49.430Z,12.10
2022-09-13T10:09:50.251Z,12.10
2022-09-13T10:14:50.955Z,13.50
2022-09-13T10:19:51.577Z,11.80
2022-09-13T10:24:52.519Z,13.40
2022-09-13T10:29:55.089Z,13.00
2022-09-13T10:34:53.819Z,12.20
2022-09-13T10:39:54.614Z,13.10
2022-09-13T10:44:55.287Z,14.80
2022-09-13T10:49:56.042Z,13.80
2022-09-13T10:54:57.012Z,13.60
2022-09-13T11:00:00.554Z,14.40
2022-09-13T11:04:59.037Z,13.30
2022-09-13T11:09:58.197Z,14.90
2022-09-13T11:14:58.872Z,16.50
2022-09-13T11:19:59.576Z,16.70
2022-09-13T11:25:00.237Z,14.30
2022-09-13T11:30:00.895Z,15.20
2022-09-13T11:35:01.559Z,15.10
2022-09-13T11:40:02.305Z,15.40
2022-09-13T11:45:02.911Z,13.40
2022-09-13T11:50:03.572Z,15.20
2022-09-13T11:55:04.251Z,14.10
2022-09-13T12:00:04.908Z,14.30
2022-09-13T12:05:21.475Z,15.10
2022-09-13T12:10:07.239Z,17.60
2022-09-13T12:15:06.866Z,16.40
2022-09-13T12:20:07.532Z,16.00
2022-09-13T12:25:08.215Z,17.30
2022-09-13T12:30:08.894Z,18.60
2022-09-13T12:35:09.551Z,16.50
2022-09-13T12:40:10.315Z,16.30
2022-09-13T12:45:10.985Z,15.60
2022-09-13T12:55:35.579Z,14.20
2022-09-13T13:00:13.834Z,16.70
2022-09-13T13:05:13.523Z,15.30
2022-09-13T13:10:14.147Z,13.90
2022-09-13T13:15:14.846Z,16.60
2022-09-13T13:20:15.962Z,10.30
2022-09-13T13:25:16.163Z,11.00
2022-09-13T13:30:16.786Z,10.20
2022-09-13T13:35:17.488Z,10.70
2022-09-13T13:40:18.234Z,10.20
2022-09-13T13:45:18.954Z,13.90
2022-09-13T13:50:19.757Z,9.40
2022-09-13T13:55:20.474Z,22.10
2022-09-13T14:00:21.050Z,11.40
2022-09-13T14:05:21.741Z,11.00
2022-09-13T14:10:22.472Z,12.10
2022-09-13T14:15:23.137Z,9.10
2022-09-13T14:20:25.066Z,8.30
2022-09-13T14:25:25.458Z,7.70
2022-09-13T14:30:26.045Z,7.80
2022-09-13T14:35:26.210Z,7.70
2022-09-13T14:40:27.648Z,8.60
2022-09-13T14:45:27.296Z,6.50
2022-09-13T14:50:28.070Z,6.70
2022-09-13T14:55:28.977Z,6.30
2022-09-13T15:00:29.766Z,6.60
2022-09-13T15:05:30.405Z,8.60
2022-09-13T15:10:31.156Z,6.20
2022-09-13T15:15:32.963Z,7.70
2022-09-13T15:20:32.615Z,9.00
2022-09-13T15:25:33.802Z,7.20
2022-09-13T15:30:34.140Z,7.30
2022-09-13T15:35:34.824Z,8.70
2022-09-13T15:40:35.855Z,8.50
2022-09-13T15:45:35.997Z,12.00
2022-09-13T15:50:43.638Z,14.10
2022-09-13T15:55:37.292Z,12.60
2022-09-13T16:00:38.098Z,13.30
2022-09-13T16:05:40.171Z,14.90
2022-09-13T16:10:39.422Z,11.80
2022-09-13T16:15:40.090Z,12.40
2022-09-13T16:20:40.731Z,11.30
2022-09-13T16:25:41.434Z,9.90
2022-09-13T16:30:42.070Z,11.20
2022-09-13T16:35:42.822Z,10.20
2022-09-13T16:40:43.455Z,9.60
2022-09-13T16:45:44.166Z,9.40
2022-09-13T16:50:44.947Z,9.10
2022-09-13T16:55:45.695Z,9.70
2022-09-13T17:00:46.407Z,10.10
2022-09-13T17:05:47.151Z,9.50
2022-09-13T17:10:47.775Z,10.00
2022-09-13T17:15:48.606Z,9.00
2022-09-13T17:20:50.910Z,10.10
2022-09-13T17:25:50.133Z,8.80
2022-09-13T17:30:50.980Z,10.00
2022-09-13T17:35:51.794Z,9.60
2022-09-13T17:40:52.529Z,9.40
2022-09-13T17:45:53.438Z,9.40
2022-09-13T17:50:55.519Z,9.10
2022-09-13T17:55:54.753Z,9.40
2022-09-13T18:00:55.689Z,8.90
2022-09-13T18:05:56.513Z,10.50
2022-09-13T18:11:12.188Z,10.80
2022-09-13T18:15:58.991Z,9.80
2022-09-13T18:20:58.712Z,8.90
2022-09-13T18:26:02.905Z,8.00
2022-09-13T18:31:00.316Z,7.20
2022-09-13T18:36:01.036Z,8.70
2022-09-13T18:41:01.856Z,8.20
2022-09-13T18:46:02.621Z,9.30
2022-09-13T18:51:03.437Z,8.00
2022-09-13T18:56:04.263Z,7.70
2022-09-13T19:01:04.977Z,9.10
2022-09-13T19:06:05.760Z,8.80
2022-09-13T19:11:06.670Z,8.90
2022-09-13T19:16:07.428Z,8.80
2022-09-13T19:21:08.111Z,9.30
2022-09-13T19:26:08.909Z,9.20
2022-09-13T19:31:09.777Z,9.70
2022-09-13T19:36:10.533Z,9.70
2022-09-13T19:41:11.252Z,12.90
2022-09-13T19:46:12.154Z,12.00
2022-09-13T19:51:13.002Z,11.90
2022-09-13T19:56:13.722Z,10.10
2022-09-13T20:01:14.528Z,16.40
2022-09-13T20:06:15.212Z,13.90
2022-09-13T20:11:15.915Z,9.70
2022-09-13T20:16:16.815Z,9.00
2022-09-13T20:21:17.650Z,13.30
2022-09-13T20:26:18.481Z,13.80
2022-09-13T20:31:19.360Z,11.10
2022-09-13T20:36:20.071Z,11.00
2022-09-13T20:41:20.852Z,9.00
2022-09-13T20:46:21.725Z,8.20
2022-09-13T20:51:22.467Z,8.80
2022-09-13T20:56:23.162Z,10.30
2022-09-13T21:01:24.054Z,9.60
2022-09-13T21:06:24.917Z,9.40
2022-09-13T21:11:25.721Z,8.90
2022-09-13T21:16:26.608Z,9.70
2022-09-13T21:21:27.326Z,10.40
2022-09-13T21:26:28.043Z,11.00
2022-09-13T21:31:28.942Z,11.80
2022-09-13T21:36:29.677Z,9.70
2022-09-13T21:41:30.410Z,12.40
2022-09-13T21:46:31.238Z,13.20
2022-09-13T21:51:39.008Z,11.00
2022-09-13T21:56:32.780Z,12.60
2022-09-13T22:01:33.634Z,11.00
2022-09-13T22:06:34.328Z,10.30
2022-09-13T22:11:35.135Z,12.70
2022-09-13T22:16:35.832Z,11.40
2022-09-13T22:21:36.615Z,13.90
2022-09-13T22:26:37.507Z,13.10
2022-09-13T22:31:38.310Z,17.90
2022-09-13T22:36:39.027Z,12.60
2022-09-13T22:41:39.810Z,11.80
2022-09-13T22:46:40.681Z,9.50
2022-09-13T22:51:41.440Z,13.10
2022-09-13T22:56:42.178Z,12.60
2022-09-13T23:01:43.095Z,10.30
2022-09-13T23:06:43.397Z,12.70
2022-09-13T23:11:44.198Z,10.70
2022-09-13T23:16:45.066Z,10.90
2022-09-13T23:21:45.868Z,12.50
2022-09-13T23:26:46.777Z,13.80
2022-09-13T23:31:47.635Z,9.70
2022-09-13T23:36:48.473Z,9.50
2022-09-13T23:41:49.293Z,11.10
2022-09-13T23:46:50.061Z,10.40
2022-09-13T23:51:50.938Z,12.40
2022-09-13T23:56:51.655Z,12.90
